createdAt,value
2019-02-07T00:01:34.585Z,13.70
2019-02-07T00:06:35.687Z,17.90
2019-02-07T00:11:37.083Z,11.10
2019-02-07T00:16:39.867Z,11.37
2019-02-07T00:21:41.008Z,10.10
2019-02-07T00:26:42.107Z,9.97
2019-02-07T00:31:43.411Z,10.80
2019-02-07T00:36:44.500Z,11.23
2019-02-07T00:41:45.716Z,8.20
2019-02-07T00:46:46.929Z,20.10
2019-02-07T00:51:48.240Z,22.33
2019-02-07T00:56:49.669Z,18.57
2019-02-07T01:01:51.090Z,19.60
2019-02-07T01:06:52.287Z,15.80
2019-02-07T01:11:53.475Z,18.00
2019-02-07T01:16:54.566Z,18.83
2019-02-07T01:21:55.767Z,19.33
2019-02-07T01:26:56.920Z,18.30
2019-02-07T01:31:58.010Z,19.57
2019-02-07T01:36:59.623Z,18.40
2019-02-07T01:42:00.818Z,17.70
2019-02-07T01:47:02.285Z,19.20
2019-02-07T01:52:03.804Z,17.17
2019-02-07T01:57:04.903Z,17.20
2019-02-07T02:02:06.095Z,16.97
2019-02-07T02:07:07.289Z,17.87
2019-02-07T02:12:08.583Z,18.90
2019-02-07T02:17:10.083Z,17.87
2019-02-07T02:22:11.407Z,16.97
2019-02-07T02:27:12.532Z,17.63
2019-02-07T02:32:13.724Z,17.07
2019-02-07T02:37:14.927Z,19.53
2019-02-07T02:42:16.026Z,18.60
2019-02-07T02:47:17.352Z,14.13
2019-02-07T02:52:18.479Z,11.80
2019-02-07T02:57:19.683Z,11.27
2019-02-07T03:02:22.787Z,11.47
2019-02-07T03:07:26.010Z,10.00
2019-02-07T03:12:32.107Z,9.93
2019-02-07T03:17:35.220Z,9.93
2019-02-07T03:22:50.373Z,8.80
2019-02-07T03:28:02.611Z,11.67
2019-02-07T03:33:05.976Z,11.93
2019-02-07T03:38:25.586Z,12.40
2019-02-07T03:43:45.268Z,11.93
2019-02-07T03:48:48.310Z,12.43
2019-02-07T03:54:07.930Z,12.63
2019-02-07T03:59:13.712Z,25.30
2019-02-07T04:04:25.798Z,20.93
2019-02-07T04:09:40.759Z,20.00
2019-02-07T04:14:46.506Z,18.93
2019-02-07T04:20:06.200Z,12.27
2019-02-07T04:25:09.298Z,11.00
2019-02-07T04:30:12.596Z,11.90
2019-02-07T04:35:33.705Z,15.03
2019-02-07T04:40:40.179Z,12.00
2019-02-07T04:45:52.127Z,10.97
2019-02-07T04:50:55.176Z,9.63
2019-02-07T04:56:13.710Z,10.00
2019-02-07T05:01:28.717Z,8.50
2019-02-07T05:06:48.319Z,9.43
2019-02-07T05:11:51.327Z,8.97
2019-02-07T05:16:54.342Z,10.67
2019-02-07T05:22:13.928Z,21.43
2019-02-07T05:27:17.017Z,22.03
2019-02-07T05:32:36.907Z,22.30
2019-02-07T05:37:42.913Z,21.27
2019-02-07T05:42:49.294Z,22.13
2019-02-07T05:48:01.414Z,18.80
2019-02-07T05:53:07.695Z,18.30
2019-02-07T05:58:10.771Z,22.03
2019-02-07T06:03:19.829Z,21.50
2019-02-07T06:08:25.792Z,25.60
2019-02-07T06:13:40.899Z,22.27
2019-02-07T06:18:56.043Z,26.60
2019-02-07T06:23:59.185Z,28.03
2019-02-07T06:29:08.231Z,31.33
2019-02-07T06:34:28.996Z,30.83
2019-02-07T06:39:37.226Z,29.77
2019-02-07T06:44:43.248Z,27.27
2019-02-07T06:49:46.271Z,19.57
2019-02-07T06:54:57.318Z,18.70
2019-02-07T07:00:00.464Z,24.43
2019-02-07T07:05:20.648Z,18.37
2019-02-07T07:10:32.617Z,16.77
2019-02-07T07:15:40.262Z,16.33
2019-02-07T07:20:52.143Z,18.63
2019-02-07T07:25:55.157Z,16.37
2019-02-07T07:31:00.973Z,15.63
2019-02-07T07:36:12.933Z,15.73
2019-02-07T07:41:25.535Z,15.83
2019-02-07T07:46:43.995Z,16.93
2019-02-07T07:51:49.940Z,18.67
2019-02-07T07:56:52.940Z,21.77
2019-02-07T08:02:12.854Z,21.13
2019-02-07T08:07:16.455Z,21.10
2019-02-07T08:12:22.884Z,21.73
2019-02-07T08:17:31.948Z,20.03
2019-02-07T08:22:46.916Z,19.10
2019-02-07T08:28:06.506Z,14.20
2019-02-07T08:33:18.714Z,20.93
2019-02-07T08:38:21.734Z,13.07
2019-02-07T08:43:30.525Z,16.40
2019-02-07T08:48:37.128Z,17.93
2019-02-07T08:53:59.896Z,20.03
2019-02-07T08:59:18.263Z,19.40
2019-02-07T09:04:30.301Z,17.53
2019-02-07T09:09:48.343Z,16.10
2019-02-07T09:15:00.304Z,18.93
2019-02-07T09:20:03.621Z,16.67
2019-02-07T09:25:10.130Z,16.00
2019-02-07T09:30:28.713Z,16.60
2019-02-07T09:35:31.718Z,16.20
2019-02-07T09:40:34.715Z,18.80
2019-02-07T09:45:54.549Z,17.23
2019-02-07T09:51:06.704Z,17.30
2019-02-07T09:56:18.731Z,19.27
2019-02-07T10:01:24.719Z,18.97
2019-02-07T10:06:36.739Z,18.27
2019-02-07T10:11:55.039Z,17.83
2019-02-07T10:17:01.188Z,18.17
2019-02-07T10:22:07.036Z,16.77
2019-02-07T10:27:15.987Z,17.10
2019-02-07T10:32:24.807Z,15.90
2019-02-07T10:37:28.111Z,18.20
2019-02-07T10:42:43.581Z,16.53
2019-02-07T10:48:02.040Z,16.60
2019-02-07T10:53:20.609Z,17.47
2019-02-07T10:58:32.560Z,14.40
2019-02-07T11:03:44.529Z,14.43
2019-02-07T11:08:56.852Z,14.47
2019-02-07T11:14:12.107Z,14.40
2019-02-07T11:19:31.934Z,14.43
2019-02-07T11:24:43.864Z,15.07
2019-02-07T11:29:46.869Z,13.83
2019-02-07T11:34:49.923Z,15.93
2019-02-07T11:39:52.922Z,14.87
2019-02-07T11:44:58.921Z,14.60
2019-02-07T11:50:14.328Z,15.63
2019-02-07T11:55:17.460Z,21.77
2019-02-07T12:00:20.856Z,22.57
2019-02-07T12:05:39.079Z,24.27
2019-02-07T12:10:42.188Z,20.20
2019-02-07T12:15:48.174Z,19.60
2019-02-07T12:21:06.420Z,19.93
2019-02-07T12:26:09.433Z,19.20
2019-02-07T12:31:22.039Z,20.57
2019-02-07T12:36:27.939Z,20.40
2019-02-07T12:41:48.115Z,19.03
2019-02-07T12:46:51.136Z,17.50
2019-02-07T12:51:54.301Z,17.97
2019-02-07T12:57:03.684Z,19.13
2019-02-07T13:02:13.194Z,21.47
2019-02-07T13:07:19.271Z,23.03
2019-02-07T13:12:25.298Z,21.40
2019-02-07T13:17:31.669Z,22.10
2019-02-07T13:22:37.741Z,25.67
2019-02-07T13:27:44.365Z,21.90
2019-02-07T13:32:47.560Z,22.97
2019-02-07T13:37:50.681Z,24.97
2019-02-07T13:43:02.356Z,26.33
2019-02-07T13:48:06.011Z,26.87
2019-02-07T13:53:09.316Z,25.33
2019-02-07T13:58:32.574Z,26.60
2019-02-07T14:03:44.448Z,26.83
2019-02-07T14:08:47.564Z,28.33
2019-02-07T14:13:53.425Z,29.60
2019-02-07T14:18:56.765Z,27.60
2019-02-07T14:23:59.883Z,12.43
2019-02-07T14:29:19.471Z,9.23
2019-02-07T14:34:28.330Z,9.87
2019-02-07T14:39:34.928Z,5.57
2019-02-07T14:44:38.025Z,8.67
2019-02-07T14:49:39.235Z,3.10
2019-02-07T14:54:40.362Z,3.23
2019-02-07T14:59:41.560Z,2.97
2019-02-07T15:04:42.852Z,1.90
2019-02-07T15:09:43.992Z,2.10
2019-02-07T15:14:45.089Z,3.50
2019-02-07T15:19:46.605Z,4.20
2019-02-07T15:24:47.732Z,4.50
2019-02-07T15:29:48.860Z,5.90
2019-02-07T15:34:50.055Z,4.57
2019-02-07T15:39:51.250Z,5.20
2019-02-07T15:44:52.488Z,5.17
2019-02-07T15:49:53.897Z,6.77
2019-02-07T15:54:55.141Z,6.67
2019-02-07T15:59:56.247Z,9.50
2019-02-07T16:04:57.575Z,10.27
2019-02-07T16:09:58.908Z,11.83
2019-02-07T16:15:00.519Z,12.73
2019-02-07T16:20:04.617Z,13.73
2019-02-07T16:25:12.097Z,14.83
2019-02-07T16:30:15.212Z,13.93
2019-02-07T16:35:18.772Z,13.43
2019-02-07T16:40:21.920Z,13.57
2019-02-07T16:45:25.062Z,16.17
2019-02-07T16:50:28.703Z,13.33
2019-02-07T16:55:30.045Z,16.83
2019-02-07T17:00:33.328Z,14.83
2019-02-07T17:05:34.649Z,13.10
2019-02-07T17:10:40.025Z,14.00
2019-02-07T17:15:41.239Z,13.20
2019-02-07T17:20:42.938Z,14.80
2019-02-07T17:25:44.397Z,14.07
2019-02-07T17:30:46.016Z,14.17
2019-02-07T17:35:49.894Z,12.73
2019-02-07T17:40:50.532Z,14.17
2019-02-07T17:45:51.881Z,13.87
2019-02-07T17:50:53.206Z,12.87
2019-02-07T17:55:54.355Z,13.27
2019-02-07T18:00:59.986Z,13.23
2019-02-07T18:06:01.542Z,11.80
2019-02-07T18:11:04.071Z,4.77
2019-02-07T18:16:05.500Z,9.97
2019-02-07T18:21:06.584Z,3.83
2019-02-07T18:26:07.913Z,3.90
2019-02-07T18:31:09.316Z,4.03
2019-02-07T18:36:10.908Z,5.20
2019-02-07T18:41:12.108Z,3.43
2019-02-07T18:46:13.219Z,3.20
2019-02-07T18:51:14.355Z,3.63
2019-02-07T18:56:15.480Z,4.00
2019-02-07T19:01:16.652Z,4.23
2019-02-07T19:06:18.163Z,3.30
2019-02-07T19:11:19.334Z,3.67
2019-02-07T19:16:20.663Z,2.07
2019-02-07T19:21:21.907Z,2.80
2019-02-07T19:26:23.120Z,3.20
2019-02-07T19:31:24.284Z,3.73
2019-02-07T19:36:25.600Z,5.03
2019-02-07T19:41:26.777Z,4.00
2019-02-07T19:46:27.947Z,10.23
2019-02-07T19:51:29.743Z,3.77
2019-02-07T19:56:31.323Z,4.33
2019-02-07T20:01:32.593Z,4.60
2019-02-07T20:06:33.919Z,4.80
2019-02-07T20:11:35.268Z,6.70
2019-02-07T20:16:36.793Z,11.67
2019-02-07T20:21:38.377Z,12.73
2019-02-07T20:26:39.485Z,8.63
2019-02-07T20:31:40.905Z,6.40
2019-02-07T20:36:44.872Z,5.17
2019-02-07T20:41:46.174Z,5.27
2019-02-07T20:46:47.596Z,3.57
2019-02-07T20:51:48.732Z,3.30
2019-02-07T20:56:49.963Z,3.43
2019-02-07T21:01:51.336Z,2.47
2019-02-07T21:06:52.577Z,3.10
2019-02-07T21:11:53.726Z,2.43
2019-02-07T21:16:54.842Z,3.17
2019-02-07T21:21:56.050Z,3.50
2019-02-07T21:26:57.171Z,2.57
2019-02-07T21:31:58.388Z,2.77
2019-02-07T21:36:59.534Z,2.40
2019-02-07T21:42:00.832Z,3.60
2019-02-07T21:47:01.951Z,2.37
2019-02-07T21:52:03.235Z,2.00
2019-02-07T21:57:04.587Z,3.13
2019-02-07T22:02:05.877Z,1.70
2019-02-07T22:07:06.987Z,2.27
2019-02-07T22:12:08.104Z,3.17
2019-02-07T22:17:09.434Z,2.20
2019-02-07T22:22:10.712Z,2.50
2019-02-07T22:27:12.211Z,2.80
2019-02-07T22:32:13.295Z,2.80
2019-02-07T22:37:14.383Z,2.80
2019-02-07T22:42:15.814Z,2.47
2019-02-07T22:47:17.014Z,3.37
2019-02-07T22:52:18.136Z,2.70
2019-02-07T22:57:19.773Z,2.27
2019-02-07T23:02:21.000Z,2.80
2019-02-07T23:07:22.205Z,4.53
2019-02-07T23:12:23.512Z,3.33
2019-02-07T23:17:24.614Z,2.73
2019-02-07T23:22:26.320Z,1.87
2019-02-07T23:27:27.531Z,1.67
2019-02-07T23:32:28.708Z,2.03
2019-02-07T23:37:29.912Z,1.40
2019-02-07T23:42:31.003Z,1.47
2019-02-07T23:47:32.299Z,1.60
2019-02-07T23:52:33.442Z,1.40
2019-02-07T23:57:34.531Z,2.00
